Nearby METAR Reports

 

ENCN - Kristiansand/Kje, Norway
Distance from station: N 17km
aktuell: 07/04/2020 20:50
klar
klar
 Wind von SW
Wind: SW 11 km/h
Temperatur: 9°C
Wind Chill: 7°C
Taupunkt: 1°C
Luftfeuchte: 58%
Luftdruck: 1030 hPa
Zusammenfassung: klar
Visibility: greater than 10 km
2020/04/07 18:50 ENCN 071850Z 23006KT CAVOK 09/01 Q1030
EKSN - Sindal Airport, Denmark
Distance from station: OSO 145km
aktuell: 07/04/2020 14:50
NOT Current
klar
klar
 Wind von W
Wind: W 31 km/h
Temperatur: 12°C
Taupunkt: 3°C
Luftfeuchte: 54%
Luftdruck: 1030 hPa
Zusammenfassung: klar
Visibility: greater than 10 km
2020/04/07 12:50 EKSN 071250Z 28017KT CAVOK 12/03 Q1030
 
EKYT - Alborg, Denmark
Distance from station: SO 153km
aktuell: 07/04/2020 20:50
klar
klar
 Wind von W
Wind: W 7 km/h
Temperatur: 8°C
Wind Chill: 7°C
Taupunkt: 2°C
Luftfeuchte: 66%
Luftdruck: 1032 hPa
Clouds: klar
Visibility: 10 km
2020/04/07 18:50 EKYT 071850Z AUTO 26004KT 9999 NCD 08/02 Q1032
ENSN - Skien/Geiterygge, Norway
Distance from station: NO 153km
aktuell: 09/11/2015 09:50
NOT Current
klar
klar
 Wind von SSW
Wind: SSW 19 km/h, Windböen: 41 km/h
Temperatur: 7°C
Wind Chill: 4°C
Taupunkt: 3°C
Luftfeuchte: 76%
Luftdruck: 1000 hPa
Zusammenfassung: klar
Visibility: greater than 10 km
2015/11/09 08:50 ENSN 090850Z 20010G22KT 150V240 CAVOK 07/03 Q1000
 
ENZV - Stavanger/Sola(A, Norway
Distance from station: NW 166km
aktuell: 07/04/2020 20:50
klar
klar
 Wind von S
Wind: S 15 km/h
Temperatur: 7°C
Wind Chill: 4°C
Taupunkt: 2°C
Luftfeuchte: 71%
Luftdruck: 1029 hPa
Zusammenfassung: klar
Visibility: greater than 10 km
2020/04/07 18:50 ENZV 071850Z 17008KT CAVOK 07/02 Q1029 NOSIG
ENNO - Notodden, Norway
Distance from station: NNO 182km
aktuell: 06/04/2020 11:50
NOT Current
Nearby showers, teilweise bewölkt
Nearby showers, teilweise bewölkt
 Wind von W
Wind: W 6 km/h
Temperatur: 7°C
Taupunkt: 2°C
Luftfeuchte: 71%
Luftdruck: 1021 hPa
Zusammenfassung: Nearby Showers
Clouds: teilweise bewölkt
Visibility: 10 km
Cloud details: teilweise bewölkt 853 m
2020/04/06 09:50 ENNO 060950Z 27003KT 9999 VCSH SCT028 07/02 Q1021
 
ENTO - Torp (civ/Nor-Af, Norway
Distance from station: NO 183km
aktuell: 07/04/2020 20:50
klar
klar
 Wind von WSW
Wind: WSW 11 km/h
Temperatur: 10°C
Wind Chill: 8°C
Taupunkt: -3°C
Luftfeuchte: 40%
Luftdruck: 1028 hPa
Zusammenfassung: klar
Visibility: greater than 10 km
2020/04/07 18:50 ENTO 071850Z 25006KT CAVOK 10/M03 Q1028 NOSIG
EKKA - Karup (dan-Afb), Denmark
Distance from station: SSO 209km
aktuell: 07/04/2020 20:50
klar
klar
 Wind von SSW
Wind: SSW 2 km/h
Temperatur: 9°C
Taupunkt: 0°C
Luftfeuchte: 54%
Luftdruck: 1032 hPa
Clouds: klar
Visibility: 10 km
2020/04/07 18:50 EKKA 071850Z AUTO 20001KT 9999 NCD 09/00 Q1032
 
ENHD - Haugesund/Karmoy, Norway
Distance from station: NW 216km
aktuell: 07/04/2020 20:50
klar
klar
 Wind von SSO
Wind: SSO 19 km/h
Temperatur: 7°C
Wind Chill: 4°C
Taupunkt: 3°C
Luftfeuchte: 76%
Luftdruck: 1028 hPa
Zusammenfassung: klar
Visibility: greater than 10 km
2020/04/07 18:50 ENHD 071850Z 16010KT CAVOK 07/03 Q1028
ENRY - Rygge (nor-Afb), Norway
Distance from station: NO 216km
aktuell: 07/04/2020 20:50
klar
klar
 Wind von S
Wind: S 9 km/h
Temperatur: 9°C
Wind Chill: 7°C
Taupunkt: -1°C
Luftfeuchte: 50%
Luftdruck: 1027 hPa
Zusammenfassung: klar
Visibility: greater than 10 km
2020/04/07 18:50 ENRY 071850Z 19005KT CAVOK 09/M01 Q1027
 
ESGP - Goteborg/Save (a, Sweden
Distance from station: O 230km
aktuell: 02/01/2017 11:20
NOT Current
klar
klar
 Wind von calm
Wind: Windstill
Temperatur: -2°C
Taupunkt: -4°C
Luftfeuchte: 86%
Luftdruck: 1012 hPa
Clouds: klar
Visibility: 10 km
2017/01/02 10:20 ESGP 021020Z AUTO 00000KT 9999 NCD M02/M04 Q1012
EKVJ - Stauning Airport, Denmark
Distance from station: S 233km
aktuell: 07/04/2020 14:50
NOT Current
klar
klar
 Wind von W
Wind: W 17 km/h
Temperatur: 12°C
Taupunkt: 7°C
Luftfeuchte: 72%
Luftdruck: 1032 hPa
Zusammenfassung: klar
Visibility: greater than 10 km
2020/04/07 12:50 EKVJ 071250Z 26009KT CAVOK 12/07 Q1032
 
ENSO - Stord/Soerstokke, Norway
Distance from station: NW 246km
aktuell: 07/04/2020 14:50
NOT Current
Few Clouds
Few Clouds
 Wind von S
Wind: S 17 km/h
Temperatur: 11°C
Taupunkt: 3°C
Luftfeuchte: 58%
Luftdruck: 1029 hPa
Clouds: Few Clouds
Visibility: 10 km
Cloud details: Few Clouds 914 m
2020/04/07 12:50 ENSO 071250Z 19009KT 140V260 9999 FEW030 11/03 Q1029
EKAH - Tirstrup (civ/Mi, Denmark
Distance from station: SO 252km
aktuell: 07/04/2020 20:50
klar
klar
 Wind von W
Wind: W 2 km/h
Temperatur: 9°C
Taupunkt: 1°C
Luftfeuchte: 58%
Luftdruck: 1033 hPa
Clouds: klar
Visibility: 10 km
2020/04/07 18:50 EKAH 071850Z AUTO 28001KT 9999NDV NCD 09/01 Q1033
 
ESGT - Trollhattan (pvt, Sweden
Distance from station: O 255km
aktuell: 07/04/2020 20:50
klar
klar
 Wind von SW
Wind: SW 11 km/h
Temperatur: 8°C
Wind Chill: 6°C
Taupunkt: 2°C
Luftfeuchte: 66%
Luftdruck: 1030 hPa
Clouds: klar
Visibility: 10 km
2020/04/07 18:50 ESGT 071850Z AUTO 23006KT 9999 NCD 08/02 Q1030
ESGG - Goteborg/Landvet, Sweden
Distance from station: O 257km
aktuell: 07/04/2020 20:50
klar
klar
 Wind von WSW
Wind: WSW 9 km/h
Temperatur: 5°C
Wind Chill: 3°C
Taupunkt: -1°C
Luftfeuchte: 66%
Luftdruck: 1031 hPa
Zusammenfassung: klar
Visibility: greater than 10 km
2020/04/07 18:50 ESGG 071850Z 25005KT CAVOK 05/M01 Q1031 R21/09//95
 
EKBI - Billund Airport, Denmark
Distance from station: SSO 269km
aktuell: 07/04/2020 20:50
klar
klar
 Wind von NNW
Wind: NNW 4 km/h
Temperatur: 7°C
Taupunkt: 1°C
Luftfeuchte: 66%
Luftdruck: 1033 hPa
Clouds: klar
Visibility: 10 km
2020/04/07 18:50 EKBI 071850Z AUTO 34002KT 9999 NCD 07/01 Q1033
EKHN - Horns Rev B Heli, Denmark
Distance from station: S 274km
aktuell: 09/08/2016 14:20
NOT Current
Few Clouds
Few Clouds
 Wind von WNW
Wind: WNW 50 km/h, Windböen: 72 km/h
Temperatur: 14°C
Taupunkt: 10°C
Luftfeuchte: 77%
Luftdruck: 1018 hPa
Clouds: Few Clouds
Visibility: 10 km
Cloud details: Few Clouds 1158 m
Few Clouds 2438 m
2016/08/09 12:20 EKHN 091220Z AUTO 29027G39KT 270V340 9999NDV FEW038/// FEW080/// 14/10 Q1018
 
ESIB - Satenas (swe-Afb, Sweden
Distance from station: O 277km
aktuell: 07/04/2020 20:50
klar
klar
 Wind von SW
Wind: SW 19 km/h
Temperatur: 8°C
Wind Chill: 4°C
Taupunkt: 4°C
Luftfeuchte: 76%
Luftdruck: 1029 hPa
Clouds: klar
Visibility: 10 km
2020/04/07 18:50 ESIB 071850Z AUTO 23010KT 9999 NCD 08/04 Q1029
EKHR - Horns Rev B Heli, Denmark
Distance from station: S 282km
aktuell: 04/10/2016 06:20
NOT Current
klar
klar
 Wind von O
Wind: O 4 km/h
Temperatur: 11°C
Taupunkt: -49°C
Luftfeuchte: 0%
Luftdruck: 1038 hPa
Clouds: klar
Visibility: 10 km
2016/10/04 04:20 EKHR 040420Z AUTO 08002KT 9999NDV NCD 11/M49 Q1038